Time;durP1;ratioP1;P1;durP2;ratioP2;P2;SDS_P1;SDS_P2;PMS_P1;PMS_P2;Temp;Humidity;BMP_temperature;BMP_pressure;BME280_temperature;BME280_humidity;BME280_pressure;Samples;Min_cycle;Max_cycle;Signal;HPM_P1;HPM_P2
2021/10/21 00:01:10;;;;;;;41.65;6.28;;;12.70;99.90;;;;;;5106130;28;20498;-80
2021/10/21 00:03:36;;;;;;;53.22;10.43;;;12.70;99.90;;;;;;5121969;27;20043;-80
2021/10/21 00:06:05;;;;;;;39.95;7.68;;;12.70;99.90;;;;;;5077520;28;20073;-81
2021/10/21 00:08:30;;;;;;;55.13;7.05;;;12.70;99.90;;;;;;5137106;27;20498;-80
2021/10/21 00:10:57;;;;;;;41.30;7.28;;;12.60;99.90;;;;;;5085458;28;20035;-80
2021/10/21 00:13:23;;;;;;;47.08;8.15;;;12.70;99.90;;;;;;5117240;28;20047;-81
2021/10/21 00:15:49;;;;;;;45.13;8.55;;;12.60;99.90;;;;;;5109987;28;20040;-80
2021/10/21 00:18:15;;;;;;;54.60;8.65;;;12.50;99.90;;;;;;5128732;27;20044;-81
2021/10/21 00:20:41;;;;;;;57.83;7.15;;;12.50;99.90;;;;;;5110024;28;20046;-81
2021/10/21 00:23:07;;;;;;;34.33;5.22;;;12.50;99.90;;;;;;5145354;27;20130;-81
2021/10/21 00:25:34;;;;;;;52.08;7.22;;;12.60;99.90;;;;;;5114071;28;20039;-81
2021/10/21 00:28:00;;;;;;;65.47;7.38;;;12.60;99.90;;;;;;5122923;27;20052;-81
2021/10/21 00:30:26;;;;;;;59.47;7.43;;;12.70;99.90;;;;;;5117070;28;20087;-81
2021/10/21 00:32:52;;;;;;;66.28;8.98;;;12.60;99.90;;;;;;5122981;28;20509;-81
2021/10/21 00:35:18;;;;;;;55.85;8.13;;;12.70;99.90;;;;;;5102842;28;20128;-81
2021/10/21 00:37:44;;;;;;;55.42;7.20;;;12.40;99.90;;;;;;5130210;27;20048;-81
2021/10/21 00:40:11;;;;;;;55.13;8.35;;;12.50;99.90;;;;;;5090253;27;20047;-81
2021/10/21 00:42:37;;;;;;;37.33;7.35;;;12.90;99.90;;;;;;5116506;27;20032;-80
2021/10/21 00:45:03;;;;;;;70.93;11.18;;;12.30;99.90;;;;;;5092132;27;20051;-80
2021/10/21 00:47:29;;;;;;;56.40;9.75;;;12.70;99.90;;;;;;5085837;27;20078;-81
2021/10/21 00:49:55;;;;;;;51.20;10.50;;;13.00;99.90;;;;;;5103633;28;20089;-81
2021/10/21 00:52:21;;;;;;;81.43;11.88;;;13.00;99.90;;;;;;5089442;27;20063;-81
2021/10/21 00:54:47;;;;;;;86.43;11.45;;;12.60;99.90;;;;;;5095123;28;20076;-80
2021/10/21 00:57:14;;;;;;;108.28;12.35;;;12.60;99.90;;;;;;5094635;27;21602;-80
2021/10/21 00:59:42;;;;;;;61.20;8.70;;;12.90;99.90;;;;;;5132676;27;20035;-80
2021/10/21 01:02:08;;;;;;;107.53;13.07;;;13.10;99.90;;;;;;5118337;27;20444;-80
2021/10/21 01:04:34;;;;;;;60.97;8.27;;;12.80;99.90;;;;;;5096597;28;20079;-80
2021/10/21 01:07:01;;;;;;;91.93;12.00;;;12.80;99.90;;;;;;5124492;27;20081;-80
2021/10/21 01:09:27;;;;;;;64.70;9.43;;;13.20;99.90;;;;;;5099040;28;20445;-80
2021/10/21 01:11:53;;;;;;;56.45;7.88;;;13.20;99.90;;;;;;5079403;28;20036;-81
2021/10/21 01:14:19;;;;;;;89.28;11.07;;;13.20;99.90;;;;;;5120486;27;20040;-81
2021/10/21 01:16:46;;;;;;;34.35;6.82;;;13.30;99.90;;;;;;5094119;28;20050;-81
2021/10/21 01:19:20;;;;;;;38.75;7.38;;;13.20;99.90;;;;;;5105662;27;20112;-81
2021/10/21 01:21:48;;;;;;;107.00;12.15;;;13.40;99.90;;;;;;5100654;28;20044;-80
2021/10/21 01:24:14;;;;;;;62.83;10.15;;;12.60;99.90;;;;;;5134647;27;20039;-80
2021/10/21 01:26:43;;;;;;;79.90;12.43;;;12.40;99.90;;;;;;5105400;27;20039;-80
2021/10/21 01:29:09;;;;;;;60.75;11.30;;;13.60;99.90;;;;;;5122977;27;20131;-80
2021/10/21 01:31:38;;;;;;;60.75;9.85;;;13.70;99.90;;;;;;5145253;27;20475;-80
2021/10/21 01:34:07;;;;;;;74.75;12.80;;;12.40;99.90;;;;;;5123133;27;20543;-80
2021/10/21 01:36:32;;;;;;;39.70;9.02;;;13.60;99.90;;;;;;5094734;28;20088;-80
2021/10/21 01:38:58;;;;;;;71.53;12.40;;;13.70;99.90;;;;;;5079803;27;20036;-81
2021/10/21 01:41:24;;;;;;;53.33;11.55;;;12.70;99.90;;;;;;5125932;27;20050;-80
2021/10/21 01:43:49;;;;;;;34.22;8.60;;;12.60;99.90;;;;;;5111373;27;20047;-80
2021/10/21 01:46:15;;;;;;;40.40;8.82;;;13.60;99.90;;;;;;5097294;28;20047;-80
2021/10/21 01:48:41;;;;;;;89.13;14.55;;;12.90;99.90;;;;;;5112264;27;20070;-80
2021/10/21 01:51:07;;;;;;;44.63;10.00;;;13.70;99.90;;;;;;5077734;27;20083;-80
2021/10/21 01:53:34;;;;;;;39.97;10.32;;;12.70;99.90;;;;;;5097943;28;20115;-80
2021/10/21 01:55:59;;;;;;;45.33;10.57;;;12.30;99.90;;;;;;5095431;28;20035;-80
2021/10/21 01:58:25;;;;;;;29.70;8.80;;;13.70;99.90;;;;;;5101069;27;20573;-80
2021/10/21 02:00:51;;;;;;;29.65;7.25;;;13.70;99.90;;;;;;5094361;27;20047;-80
2021/10/21 02:03:17;;;;;;;71.07;9.60;;;13.00;99.90;;;;;;5096587;28;20499;-80
2021/10/21 02:05:42;;;;;;;49.88;9.65;;;13.40;99.90;;;;;;5112139;27;20054;-80
2021/10/21 02:08:08;;;;;;;37.58;9.38;;;12.30;99.90;;;;;;5099148;28;20483;-80
2021/10/21 02:10:34;;;;;;;67.88;12.25;;;13.90;99.90;;;;;;5095558;27;20032;-80
2021/10/21 02:12:59;;;;;;;60.55;11.48;;;13.40;99.90;;;;;;5103605;28;20031;-80
2021/10/21 02:15:25;;;;;;;30.95;9.23;;;12.60;99.90;;;;;;5114713;27;20042;-80
2021/10/21 02:17:51;;;;;;;38.33;9.27;;;13.70;99.90;;;;;;5079758;27;20040;-80
2021/10/21 02:20:17;;;;;;;44.25;9.40;;;12.70;99.90;;;;;;5109321;27;20476;-80
2021/10/21 02:22:43;;;;;;;52.05;9.82;;;12.30;99.90;;;;;;5128737;27;20055;-80
2021/10/21 02:25:12;;;;;;;83.55;13.23;;;13.00;99.90;;;;;;5103912;28;20039;-80
2021/10/21 02:27:39;;;;;;;66.03;11.93;;;13.90;99.90;;;;;;5111029;27;20157;-80
2021/10/21 02:30:07;;;;;;;79.30;12.75;;;11.90;99.90;;;;;;5121084;27;20066;-80
2021/10/21 02:32:32;;;;;;;80.72;10.02;;;13.40;99.90;;;;;;5105872;27;20043;-80
2021/10/21 02:34:58;;;;;;;189.23;19.45;;;13.50;99.90;;;;;;5077805;28;20047;-80
2021/10/21 02:37:24;;;;;;;46.20;7.93;;;13.40;99.90;;;;;;5107849;27;20466;-79
2021/10/21 02:39:50;;;;;;;50.25;8.77;;;13.20;99.90;;;;;;5096633;28;20051;-80
2021/10/21 02:42:15;;;;;;;31.52;6.57;;;13.30;99.90;;;;;;5116969;27;20567;-79
2021/10/21 02:44:41;;;;;;;25.38;3.75;;;12.00;99.90;;;;;;5093970;27;20047;-80
2021/10/21 02:47:07;;;;;;;12.90;2.55;;;12.60;99.90;;;;;;5086273;27;20154;-80
2021/10/21 02:49:32;;;;;;;7.53;1.67;;;11.80;99.90;;;;;;5081198;28;20035;-79
2021/10/21 02:51:58;;;;;;;13.55;2.13;;;12.90;99.90;;;;;;5117022;27;20074;-79
2021/10/21 02:54:24;;;;;;;5.13;1.35;;;11.80;99.90;;;;;;5108629;27;20031;-79
2021/10/21 02:56:49;;;;;;;10.60;2.40;;;11.70;99.90;;;;;;5107209;27;20035;-79
2021/10/21 02:59:15;;;;;;;21.08;4.75;;;11.40;99.90;;;;;;5076029;28;20391;-80
2021/10/21 03:01:41;;;;;;;26.83;3.03;;;;;;;;;;5067840;27;20037;-80
2021/10/21 03:04:07;;;;;;;24.70;2.97;;;11.30;99.90;;;;;;5090640;27;20044;-79
2021/10/21 03:06:33;;;;;;;27.90;3.30;;;11.10;99.90;;;;;;5075183;27;20551;-79
2021/10/21 03:08:58;;;;;;;88.18;3.95;;;12.00;99.90;;;;;;5096212;27;20047;-79
2021/10/21 03:11:24;;;;;;;83.45;3.85;;;12.20;99.90;;;;;;5107696;27;20174;-79
2021/10/21 03:13:50;;;;;;;20.25;2.70;;;11.90;99.90;;;;;;5077310;28;20037;-79
2021/10/21 03:16:15;;;;;;;19.40;2.70;;;11.40;99.90;;;;;;5079216;28;20035;-79
2021/10/21 03:18:41;;;;;;;19.15;2.50;;;10.90;99.90;;;;;;5091722;27;20486;-79
2021/10/21 03:21:07;;;;;;;23.65;2.42;;;11.00;99.90;;;;;;5089513;27;20110;-79
2021/10/21 03:23:32;;;;;;;25.45;3.00;;;11.60;99.90;;;;;;5106554;27;20043;-79
2021/10/21 03:25:58;;;;;;;23.25;2.65;;;11.50;99.90;;;;;;5100348;28;20465;-79
2021/10/21 03:28:24;;;;;;;36.53;2.83;;;10.40;99.90;;;;;;5100605;27;20043;-79
2021/10/21 03:30:50;;;;;;;28.40;2.55;;;11.10;99.90;;;;;;5096181;27;20504;-79
2021/10/21 03:33:16;;;;;;;18.80;1.95;;;10.80;99.90;;;;;;5101245;28;20042;-79
2021/10/21 03:35:42;;;;;;;44.28;2.80;;;10.80;99.90;;;;;;5079274;28;20035;-79
2021/10/21 03:38:08;;;;;;;27.05;3.20;;;11.60;99.90;;;;;;5108580;28;20043;-79
2021/10/21 03:40:34;;;;;;;20.73;2.30;;;11.40;99.90;;;;;;5118205;27;20043;-79
2021/10/21 03:42:59;;;;;;;21.05;2.65;;;10.80;99.90;;;;;;5106934;27;20066;-79
2021/10/21 03:45:25;;;;;;;54.60;3.80;;;11.80;99.90;;;;;;5109499;27;20482;-79
2021/10/21 03:47:51;;;;;;;35.08;3.20;;;10.40;99.90;;;;;;5102178;27;20118;-79
2021/10/21 03:50:17;;;;;;;45.72;3.38;;;10.20;99.90;;;;;;5060209;28;20048;-79
2021/10/21 03:52:43;;;;;;;31.15;3.42;;;10.20;99.90;;;;;;5094718;28;20039;-79
2021/10/21 03:55:09;;;;;;;29.20;2.92;;;11.10;99.90;;;;;;5095316;28;20497;-79
2021/10/21 03:57:34;;;;;;;36.85;2.38;;;11.60;99.90;;;;;;5111705;28;20031;-79
2021/10/21 04:00:01;;;;;;;35.85;2.80;;;11.20;99.90;;;;;;5109410;28;20466;-79
2021/10/21 04:02:26;;;;;;;37.65;2.90;;;10.80;99.90;;;;;;5093059;28;20039;-79
2021/10/21 04:04:52;;;;;;;48.13;3.17;;;12.00;99.90;;;;;;5109100;28;20090;-79
2021/10/21 04:07:18;;;;;;;50.95;3.55;;;12.50;99.90;;;;;;5076089;28;20082;-79
2021/10/21 04:09:43;;;;;;;20.95;1.90;;;10.40;99.90;;;;;;5109018;28;20047;-79
2021/10/21 04:12:09;;;;;;;29.00;2.75;;;9.80;99.90;;;;;;5117194;28;20547;-79
2021/10/21 04:14:35;;;;;;;36.15;2.63;;;12.50;99.90;;;;;;5120424;27;20483;-79
2021/10/21 04:17:01;;;;;;;19.83;1.90;;;11.40;99.90;;;;;;5114079;28;20039;-79
2021/10/21 04:19:26;;;;;;;14.60;1.38;;;9.30;99.90;;;;;;5123469;27;20483;-79
2021/10/21 04:21:52;;;;;;;18.35;1.48;;;9.00;99.90;;;;;;5108944;27;20187;-79
2021/10/21 04:24:18;;;;;;;12.00;1.10;;;12.30;99.90;;;;;;5092062;27;20040;-79
2021/10/21 04:26:44;;;;;;;21.55;1.55;;;12.10;99.90;;;;;;5110266;28;20042;-79
2021/10/21 04:29:10;;;;;;;17.15;1.55;;;11.40;99.90;;;;;;5096959;28;20643;-79
2021/10/21 04:31:35;;;;;;;19.92;1.70;;;12.30;99.90;;;;;;5132012;27;20031;-79
2021/10/21 04:34:01;;;;;;;13.23;1.10;;;9.00;99.90;;;;;;5109425;28;20043;-79
2021/10/21 04:36:27;;;;;;;19.48;1.10;;;12.60;99.90;;;;;;5097766;27;20043;-79
2021/10/21 04:38:52;;;;;;;10.13;1.08;;;9.90;99.90;;;;;;5097433;27;20035;-79
2021/10/21 04:41:18;;;;;;;12.13;1.00;;;9.60;99.90;;;;;;5081848;28;20047;-79
2021/10/21 04:43:44;;;;;;;13.88;1.83;;;11.40;99.90;;;;;;5134448;27;20042;-79
2021/10/21 04:46:09;;;;;;;15.43;1.25;;;10.40;99.90;;;;;;5119206;27;20134;-79
2021/10/21 04:48:35;;;;;;;19.77;1.40;;;10.60;99.90;;;;;;5086156;27;20487;-79
2021/10/21 04:51:01;;;;;;;22.42;1.40;;;10.50;99.90;;;;;;5101269;27;20040;-80
2021/10/21 04:53:26;;;;;;;20.85;1.27;;;9.20;99.90;;;;;;5083930;28;20047;-79
2021/10/21 04:55:52;;;;;;;27.40;1.15;;;9.00;99.90;;;;;;5072800;28;20411;-79
2021/10/21 04:58:18;;;;;;;26.77;1.50;;;9.80;99.90;;;;;;5082180;27;20070;-79
2021/10/21 05:00:44;;;;;;;22.05;2.22;;;10.40;99.90;;;;;;5131956;27;20099;-80
2021/10/21 05:03:12;;;;;;;0.00;0.00;;;10.90;99.90;;;;;;5098955;27;20092;-80
2021/10/21 05:05:40;;;;;;;0.00;0.00;;;11.60;99.90;;;;;;5107767;27;20120;-80
2021/10/21 05:08:06;;;;;;;14.50;2.00;;;10.90;99.90;;;;;;5081322;27;20052;-80
2021/10/21 05:10:32;;;;;;;0.00;0.00;;;9.20;99.90;;;;;;5127001;27;20039;-80
2021/10/21 05:12:58;;;;;;;0.20;0.20;;;9.80;99.90;;;;;;5105637;27;20566;-79
2021/10/21 05:15:24;;;;;;;0.00;0.00;;;11.30;99.90;;;;;;5132228;27;20122;-80
2021/10/21 05:17:51;;;;;;;1.55;0.68;;;9.10;99.90;;;;;;5115205;27;20135;-79
2021/10/21 05:20:17;;;;;;;0.00;0.00;;;10.60;99.90;;;;;;5117392;27;20047;-80
2021/10/21 05:22:43;;;;;;;0.00;0.00;;;10.80;99.90;;;;;;5105298;27;20146;-80
2021/10/21 05:25:09;;;;;;;0.00;0.00;;;9.50;99.90;;;;;;5114386;27;20490;-80
2021/10/21 05:27:36;;;;;;;0.00;0.00;;;9.10;99.90;;;;;;5099913;28;20434;-80
2021/10/21 05:30:07;;;;;;;1.38;0.60;;;9.60;99.90;;;;;;5123493;27;20693;-80
2021/10/21 05:32:33;;;;;;;0.00;0.00;;;11.00;99.90;;;;;;5110467;27;20046;-80
2021/10/21 05:34:58;;;;;;;1.38;0.17;;;10.10;99.90;;;;;;5123104;27;20483;-80
2021/10/21 05:37:25;;;;;;;0.10;0.10;;;9.50;99.90;;;;;;5093768;28;20054;-79
2021/10/21 05:39:51;;;;;;;0.00;0.00;;;9.30;99.90;;;;;;5113343;27;20050;-79
2021/10/21 05:42:16;;;;;;;0.05;0.05;;;9.10;99.90;;;;;;5135530;27;20035;-80
2021/10/21 05:44:43;;;;;;;0.25;0.25;;;9.00;99.90;;;;;;5090698;28;20548;-80
2021/10/21 05:47:09;;;;;;;0.00;0.00;;;9.30;99.90;;;;;;5117580;27;20046;-80
2021/10/21 05:49:35;;;;;;;0.00;0.00;;;9.10;99.90;;;;;;5139269;27;20053;-79
2021/10/21 05:52:01;;;;;;;0.40;0.40;;;10.80;99.90;;;;;;5127746;27;20448;-80
2021/10/21 05:54:27;;;;;;;0.00;0.00;;;11.30;99.90;;;;;;5122732;27;20047;-80
2021/10/21 05:56:53;;;;;;;0.00;0.00;;;11.20;99.90;;;;;;5108659;27;20028;-80
2021/10/21 05:59:18;;;;;;;0.00;0.00;;;9.40;99.90;;;;;;5126270;27;20513;-79
2021/10/21 06:01:44;;;;;;;0.00;0.00;;;11.30;99.90;;;;;;5111821;27;20451;-80
2021/10/21 06:04:10;;;;;;;0.00;0.00;;;10.90;99.90;;;;;;5093587;27;20521;-79
2021/10/21 06:06:37;;;;;;;0.00;0.00;;;9.20;99.90;;;;;;5111036;27;20184;-79
2021/10/21 06:09:04;;;;;;;0.00;0.00;;;11.30;99.90;;;;;;5123423;27;20428;-80
2021/10/21 06:11:31;;;;;;;0.15;0.10;;;10.60;99.90;;;;;;5106198;28;20035;-79
2021/10/21 06:13:58;;;;;;;0.00;0.00;;;9.30;99.90;;;;;;5112658;27;20040;-79
2021/10/21 06:16:23;;;;;;;0.00;0.00;;;9.60;99.90;;;;;;5119125;27;20043;-79
2021/10/21 06:18:49;;;;;;;0.00;0.00;;;9.70;99.90;;;;;;5124747;27;20039;-80
2021/10/21 06:21:21;;;;;;;0.10;0.10;;;10.20;99.90;;;;;;5097218;28;20088;-79
2021/10/21 06:23:47;;;;;;;;;;;10.50;99.90;;;;;;5088678;27;20035;-80
2021/10/21 06:26:13;;;;;;;0.45;0.30;;;9.30;99.90;;;;;;5085443;28;20302;-80
2021/10/21 06:28:40;;;;;;;0.00;0.00;;;11.10;99.90;;;;;;5114437;27;20035;-80
2021/10/21 06:31:06;;;;;;;0.00;0.00;;;9.40;99.90;;;;;;5124255;27;20035;-80
2021/10/21 06:33:31;;;;;;;0.00;0.00;;;9.20;99.90;;;;;;5075366;28;20413;-80
2021/10/21 06:35:57;;;;;;;0.00;0.00;;;9.40;99.90;;;;;;5098205;27;20438;-80
2021/10/21 06:38:23;;;;;;;0.25;0.20;;;9.30;99.90;;;;;;5112370;27;20067;-79
2021/10/21 06:40:49;;;;;;;0.00;0.00;;;10.90;99.90;;;;;;5111855;27;20040;-80
2021/10/21 06:43:14;;;;;;;0.10;0.10;;;9.50;99.90;;;;;;5103689;27;20043;-80
2021/10/21 06:45:40;;;;;;;0.00;0.00;;;9.30;99.90;;;;;;5075870;27;20514;-80
2021/10/21 06:48:06;;;;;;;0.00;0.00;;;10.30;99.90;;;;;;5073085;28;20079;-82
2021/10/21 06:50:32;;;;;;;0.25;0.17;;;10.30;99.90;;;;;;5137857;27;20063;-82
2021/10/21 06:52:58;;;;;;;0.10;0.10;;;11.00;99.90;;;;;;5111139;27;20043;-82
2021/10/21 06:55:24;;;;;;;0.00;0.00;;;11.10;99.90;;;;;;5096291;28;20047;-82
2021/10/21 06:57:57;;;;;;;0.05;0.05;;;8.90;99.90;;;;;;5092228;28;20491;-83
2021/10/21 07:00:23;;;;;;;0.00;0.00;;;9.50;99.90;;;;;;5092953;28;20081;-83
2021/10/21 07:02:49;;;;;;;0.10;0.10;;;8.70;99.90;;;;;;5092886;27;20555;-83
2021/10/21 07:05:15;;;;;;;0.75;0.22;;;10.80;99.90;;;;;;5125530;27;20051;-81
2021/10/21 07:07:42;;;;;;;23.80;0.40;;;8.70;99.90;;;;;;5109554;27;20513;-80
2021/10/21 07:10:09;;;;;;;0.00;0.00;;;10.60;99.90;;;;;;5113768;27;20072;-80
2021/10/21 07:12:36;;;;;;;0.00;0.00;;;8.60;99.90;;;;;;5104133;28;20043;-80
2021/10/21 07:15:02;;;;;;;0.00;0.00;;;9.30;99.90;;;;;;5117388;27;20114;-85
2021/10/21 07:17:28;;;;;;;1.38;0.75;;;10.60;99.90;;;;;;5070541;28;20089;-84
2021/10/21 07:19:54;;;;;;;0.82;0.40;;;9.00;99.90;;;;;;5120976;27;20043;-81
2021/10/21 07:22:20;;;;;;;0.00;0.00;;;9.90;99.90;;;;;;5074490;28;20043;-83
2021/10/21 07:24:46;;;;;;;0.00;0.00;;;8.70;99.90;;;;;;5091025;28;20047;-87
2021/10/21 07:27:12;;;;;;;0.00;0.00;;;8.60;99.90;;;;;;5091880;28;20055;-82
2021/10/21 07:29:38;;;;;;;1.35;1.08;;;10.80;99.90;;;;;;5095300;28;20599;-84
2021/10/21 07:32:04;;;;;;;0.00;0.00;;;9.70;99.90;;;;;;5090869;28;20096;-81
2021/10/21 07:34:30;;;;;;;1.35;0.73;;;9.10;99.90;;;;;;5098253;28;20294;-81
2021/10/21 07:36:57;;;;;;;0.00;0.00;;;8.10;99.90;;;;;;5079058;28;20039;-82
2021/10/21 07:39:24;;;;;;;0.35;0.35;;;8.10;99.90;;;;;;5087940;28;20052;-82
2021/10/21 07:41:54;;;;;;;0.00;0.00;;;10.80;99.90;;;;;;5105518;27;20040;-82
2021/10/21 07:44:19;;;;;;;1.15;0.38;;;10.10;99.90;;;;;;5103909;27;20125;-82
2021/10/21 07:46:46;;;;;;;0.00;0.00;;;8.40;99.90;;;;;;5055201;28;20582;-82
2021/10/21 07:49:16;;;;;;;0.05;0.05;;;8.60;99.90;;;;;;5094491;28;20600;-82
2021/10/21 07:51:42;;;;;;;0.00;0.00;;;8.80;99.90;;;;;;5105875;28;20459;-81
2021/10/21 07:54:10;;;;;;;0.00;0.00;;;8.80;99.90;;;;;;5089762;28;20043;-82
2021/10/21 07:56:36;;;;;;;0.00;0.00;;;8.20;99.90;;;;;;5089694;28;20171;-82
2021/10/21 07:59:02;;;;;;;0.85;0.75;;;11.00;99.90;;;;;;5090251;27;20507;-82
2021/10/21 08:01:28;;;;;;;0.00;0.00;;;8.00;99.90;;;;;;5094281;28;20585;-82
2021/10/21 08:03:54;;;;;;;0.00;0.00;;;10.90;99.90;;;;;;5122642;27;20130;-81
2021/10/21 08:06:20;;;;;;;0.00;0.00;;;8.30;99.90;;;;;;5079085;28;20055;-81
2021/10/21 08:08:47;;;;;;;0.00;0.00;;;8.40;99.90;;;;;;5092526;28;20065;-82
2021/10/21 08:11:13;;;;;;;0.00;0.00;;;9.40;99.90;;;;;;5109014;28;20093;-82
2021/10/21 08:13:39;;;;;;;0.00;0.00;;;9.90;99.90;;;;;;5108331;28;20032;-82
2021/10/21 08:16:05;;;;;;;0.00;0.00;;;10.90;99.90;;;;;;5118206;28;20543;-81
2021/10/21 08:18:31;;;;;;;0.10;0.10;;;8.10;99.90;;;;;;5090847;28;20502;-82
2021/10/21 08:20:58;;;;;;;2.92;1.55;;;8.40;99.90;;;;;;5096892;28;20056;-81
2021/10/21 08:23:23;;;;;;;0.35;0.35;;;11.00;99.90;;;;;;5107711;28;20086;-81
2021/10/21 08:25:49;;;;;;;0.00;0.00;;;8.30;99.90;;;;;;5123184;27;20078;-82
2021/10/21 08:28:15;;;;;;;0.10;0.10;;;8.40;99.90;;;;;;5124524;27;20044;-81
2021/10/21 08:30:43;;;;;;;0.00;0.00;;;10.30;99.90;;;;;;5103126;28;20044;-82
2021/10/21 08:33:12;;;;;;;0.20;0.20;;;8.80;99.90;;;;;;5064742;28;20040;-82
2021/10/21 08:35:38;;;;;;;0.00;0.00;;;10.30;99.90;;;;;;5092398;28;20044;-81
2021/10/21 08:38:04;;;;;;;0.00;0.00;;;10.50;99.90;;;;;;5087491;28;20044;-82
2021/10/21 08:40:31;;;;;;;0.00;0.00;;;11.40;99.90;;;;;;5089368;28;20043;-82
2021/10/21 08:42:58;;;;;;;0.10;0.10;;;8.70;99.90;;;;;;5120785;27;20058;-81
2021/10/21 08:45:23;;;;;;;0.00;0.00;;;11.10;99.90;;;;;;5127109;28;20051;-81
2021/10/21 08:47:50;;;;;;;0.00;0.00;;;8.90;99.90;;;;;;5097988;28;20046;-81
2021/10/21 08:50:17;;;;;;;0.00;0.00;;;11.10;99.90;;;;;;5123680;28;20044;-81
2021/10/21 08:52:44;;;;;;;0.00;0.00;;;9.30;99.90;;;;;;5112523;27;20123;-82
2021/10/21 08:55:11;;;;;;;0.10;0.10;;;10.40;99.90;;;;;;5105146;28;20464;-81
2021/10/21 08:57:38;;;;;;;0.00;0.00;;;11.30;99.90;;;;;;5103033;28;20104;-81
2021/10/21 09:00:09;;;;;;;0.00;0.00;;;10.00;99.90;;;;;;5093747;28;20047;-81
2021/10/21 09:02:57;;;;;;;0.00;0.00;;;8.80;99.90;;;;;;5116993;27;20099;-81
2021/10/21 09:08:22;;;;;;;0.00;0.00;;;10.50;99.90;;;;;;5092188;28;20487;-82
2021/10/21 09:10:50;;;;;;;0.00;0.00;;;9.30;99.90;;;;;;5093730;28;20052;-82
2021/10/21 09:13:38;;;;;;;0.00;0.00;;;10.70;99.90;;;;;;5119976;27;20047;-82
2021/10/21 09:16:08;;;;;;;0.00;0.00;;;10.60;99.90;;;;;;5130289;27;20043;-82
2021/10/21 09:18:44;;;;;;;0.32;0.32;;;10.50;99.90;;;;;;5110482;27;20035;-83
2021/10/21 09:21:30;;;;;;;0.00;0.00;;;10.50;99.90;;;;;;5114981;27;20103;-82
2021/10/21 09:23:57;;;;;;;0.00;0.00;;;10.70;99.90;;;;;;5119085;27;20564;-82
2021/10/21 09:26:23;;;;;;;0.00;0.00;;;10.80;99.90;;;;;;5128055;27;20101;-82
2021/10/21 09:28:49;;;;;;;0.00;0.00;;;9.60;99.90;;;;;;5133641;27;20036;-82
2021/10/21 09:31:15;;;;;;;0.00;0.00;;;8.70;99.90;;;;;;5109233;27;20043;-82
2021/10/21 09:33:43;;;;;;;0.00;0.00;;;10.10;99.90;;;;;;5110630;27;20066;-82
2021/10/21 09:36:09;;;;;;;0.20;0.20;;;11.10;99.90;;;;;;5114855;27;20043;-82
2021/10/21 09:38:35;;;;;;;0.00;0.00;;;10.40;99.90;;;;;;5093637;28;20080;-82
2021/10/21 09:41:22;;;;;;;0.00;0.00;;;11.10;99.90;;;;;;5093404;28;20634;-82
2021/10/21 09:43:50;;;;;;;0.10;0.10;;;11.20;99.90;;;;;;5094398;28;20039;-82
2021/10/21 09:46:48;;;;;;;0.00;0.00;;;8.10;99.90;;;;;;5127277;27;20116;-82
2021/10/21 09:49:37;;;;;;;0.00;0.00;;;11.70;99.90;;;;;;5064136;27;20520;-83
2021/10/21 09:52:03;;;;;;;0.00;0.00;;;11.40;99.90;;;;;;5092456;27;20079;-82
2021/10/21 09:54:32;;;;;;;0.00;0.00;;;8.50;99.90;;;;;;5065967;28;20048;-83
2021/10/21 09:57:00;;;;;;;0.00;0.00;;;11.00;99.90;;;;;;5106626;27;20129;-84
2021/10/21 09:59:27;;;;;;;0.00;0.00;;;9.70;99.90;;;;;;5104738;27;20125;-83
2021/10/21 10:01:57;;;;;;;0.10;0.10;;;11.50;99.90;;;;;;5113812;27;20061;-82
2021/10/21 10:04:25;;;;;;;0.38;0.38;;;7.90;99.90;;;;;;5104815;28;20042;-82
2021/10/21 10:06:58;;;;;;;0.00;0.00;;;7.90;99.90;;;;;;5110137;28;20081;-82
2021/10/21 10:09:29;;;;;;;0.00;0.00;;;8.00;99.90;;;;;;5097189;27;20078;-82
2021/10/21 10:11:55;;;;;;;0.10;0.10;;;11.30;99.90;;;;;;5113171;27;20119;-82
2021/10/21 10:14:21;;;;;;;0.00;0.00;;;8.50;99.90;;;;;;5062477;28;20092;-82
2021/10/21 10:16:48;;;;;;;0.00;0.00;;;7.90;99.90;;;;;;5076461;28;20479;-83
2021/10/21 10:19:13;;;;;;;0.20;0.20;;;10.70;99.90;;;;;;5110699;27;20047;-82
2021/10/21 10:21:41;;;;;;;0.00;0.00;;;8.30;99.90;;;;;;5126292;27;20121;-82
2021/10/21 10:24:13;;;;;;;0.28;0.28;;;11.00;99.90;;;;;;5112840;27;20126;-81
2021/10/21 10:26:49;;;;;;;0.10;0.10;;;7.40;99.90;;;;;;5096388;28;20051;-81
2021/10/21 10:29:17;;;;;;;0.00;0.00;;;7.40;99.90;;;;;;5092678;28;20126;-82
2021/10/21 10:31:59;;;;;;;0.00;0.00;;;7.80;99.90;;;;;;5127986;27;20581;-82
2021/10/21 10:34:34;;;;;;;0.00;0.00;;;10.30;99.90;;;;;;5109388;27;20039;-82
2021/10/21 10:37:12;;;;;;;0.00;0.00;;;10.00;99.90;;;;;;5118188;27;20282;-81
2021/10/21 10:39:56;;;;;;;0.00;0.00;;;10.90;99.90;;;;;;5121371;27;20090;-82
2021/10/21 10:42:37;;;;;;;0.57;0.57;;;7.30;99.90;;;;;;5089071;28;20131;-82
2021/10/21 10:45:09;;;;;;;0.10;0.10;;;6.80;99.90;;;;;;5089352;27;20056;-81
2021/10/21 10:47:38;;;;;;;0.45;0.45;;;7.20;99.90;;;;;;5109832;28;20113;-83
2021/10/21 10:50:29;;;;;;;0.10;0.10;;;6.60;99.90;;;;;;5109367;28;20074;-84
2021/10/21 10:53:01;;;;;;;0.30;0.30;;;10.60;99.90;;;;;;5087349;27;20055;-82
2021/10/21 10:55:47;;;;;;;0.00;0.00;;;8.40;99.90;;;;;;5100066;27;20113;-82
2021/10/21 10:58:17;;;;;;;0.10;0.10;;;10.00;99.90;;;;;;5104742;28;20496;-82
2021/10/21 11:00:55;;;;;;;0.00;0.00;;;6.80;99.90;;;;;;5058319;27;20051;-82
2021/10/21 11:03:34;;;;;;;0.00;0.00;;;6.60;99.90;;;;;;5104366;27;20046;-82
2021/10/21 11:06:32;;;;;;;2.15;1.10;;;7.70;99.90;;;;;;5090814;28;20120;-84
2021/10/21 11:09:04;;;;;;;0.28;0.20;;;7.50;99.90;;;;;;5100596;28;20087;-82
2021/10/21 11:12:01;;;;;;;0.00;0.00;;;7.90;99.90;;;;;;5108281;27;20039;-82
2021/10/21 11:14:30;;;;;;;0.00;0.00;;;9.10;99.90;;;;;;5140048;27;20035;-81
2021/10/21 11:16:56;;;;;;;0.00;0.00;;;7.20;99.90;;;;;;5109571;27;20585;-82
2021/10/21 11:19:46;;;;;;;0.57;0.40;;;6.70;99.90;;;;;;5112194;27;20410;-82
2021/10/21 11:22:33;;;;;;;0.00;0.00;;;6.80;99.90;;;;;;5103399;27;20048;-83
2021/10/21 11:25:02;;;;;;;0.00;0.00;;;7.80;99.90;;;;;;5107808;28;20130;-84
2021/10/21 11:27:40;;;;;;;0.40;0.30;;;8.10;99.90;;;;;;5109631;27;20058;-84
2021/10/21 11:30:08;;;;;;;0.00;0.00;;;7.40;99.90;;;;;;5114469;27;20036;-84
2021/10/21 11:32:36;;;;;;;0.00;0.00;;;9.60;99.90;;;;;;5096394;27;20039;-84
2021/10/21 11:35:18;;;;;;;0.00;0.00;;;9.20;99.90;;;;;;5119079;27;20044;-84
2021/10/21 11:37:48;;;;;;;0.00;0.00;;;6.80;99.90;;;;;;5108453;27;20040;-84
2021/10/21 11:40:32;;;;;;;0.00;0.00;;;10.30;99.90;;;;;;5124406;27;20051;-83
2021/10/21 11:43:04;;;;;;;0.00;0.00;;;10.50;99.90;;;;;;5118874;27;20050;-84
2021/10/21 11:45:34;;;;;;;0.00;0.00;;;10.10;99.90;;;;;;5090454;28;20491;-84
2021/10/21 11:48:12;;;;;;;0.52;0.38;;;9.30;99.90;;;;;;5133703;27;20051;-84
2021/10/21 11:50:48;;;;;;;0.00;0.00;;;10.50;99.90;;;;;;5107440;28;20043;-84
2021/10/21 11:53:15;;;;;;;0.00;0.00;;;7.10;99.90;;;;;;5108470;28;20147;-85
2021/10/21 11:55:46;;;;;;;0.00;0.00;;;7.40;99.90;;;;;;5105315;28;20517;-84
2021/10/21 11:58:15;;;;;;;0.00;0.00;;;10.30;99.90;;;;;;5111072;27;20514;-84
2021/10/21 12:00:48;;;;;;;0.55;0.55;;;10.50;99.90;;;;;;5107184;27;20040;-84
2021/10/21 12:03:15;;;;;;;0.38;0.30;;;9.50;99.90;;;;;;5083369;28;20229;-83
2021/10/21 12:05:41;;;;;;;0.20;0.20;;;9.60;99.90;;;;;;5099572;27;20055;-83
2021/10/21 12:08:12;;;;;;;0.10;0.10;;;10.10;99.90;;;;;;5111466;27;20065;-84
2021/10/21 12:10:46;;;;;;;0.05;0.05;;;10.20;99.90;;;;;;5105738;28;20044;-84
2021/10/21 12:13:25;;;;;;;0.00;0.00;;;9.20;99.90;;;;;;5110510;28;20035;-84
2021/10/21 12:15:52;;;;;;;0.00;0.00;;;10.10;99.90;;;;;;5096808;28;20051;-85
2021/10/21 12:18:19;;;;;;;0.00;0.00;;;7.40;99.90;;;;;;5108539;28;20043;-84
2021/10/21 12:20:49;;;;;;;1.00;0.90;;;7.20;99.90;;;;;;5106778;28;20529;-84
2021/10/21 12:23:16;;;;;;;16.98;0.63;;;7.20;99.90;;;;;;5107378;28;20052;-84
2021/10/21 12:25:46;;;;;;;0.00;0.00;;;9.80;99.90;;;;;;5121875;27;20495;-82
2021/10/21 12:28:11;;;;;;;0.65;0.65;;;10.20;99.90;;;;;;5093045;28;20076;-81
2021/10/21 12:30:38;;;;;;;0.55;0.55;;;9.80;99.90;;;;;;5078486;28;20583;-82
2021/10/21 12:33:24;;;;;;;0.10;0.10;;;7.40;99.90;;;;;;5110226;28;20067;-82
2021/10/21 12:36:06;;;;;;;0.00;0.00;;;10.40;99.90;;;;;;5112306;27;20056;-82
2021/10/21 12:38:40;;;;;;;3.33;1.60;;;7.70;99.90;;;;;;5094792;28;20047;-82
2021/10/21 12:41:06;;;;;;;0.00;0.00;;;9.70;99.90;;;;;;5110274;28;20494;-82
2021/10/21 12:43:33;;;;;;;0.45;0.45;;;7.60;99.90;;;;;;5109259;27;20044;-82
2021/10/21 12:46:01;;;;;;;0.00;0.00;;;10.40;99.90;;;;;;5092735;28;20047;-82
2021/10/21 12:48:34;;;;;;;0.50;0.50;;;8.40;99.90;;;;;;5111461;28;20040;-81
2021/10/21 12:51:14;;;;;;;0.00;0.00;;;8.00;99.90;;;;;;5098455;28;20122;-81
2021/10/21 12:53:52;;;;;;;0.10;0.10;;;9.30;99.90;;;;;;5110552;28;20051;-81